sensor_id;sensor_type;location;lat;lon;timestamp;P1;durP1;ratioP1;P2;durP2;ratioP2
9968;SDS011;5025;48.890;9.278;2023-02-22T00:00:12;6.70;;;6.10;;
9968;SDS011;5025;48.890;9.278;2023-02-22T00:02:46;7.93;;;6.00;;
9968;SDS011;5025;48.890;9.278;2023-02-22T00:05:13;6.63;;;5.87;;
9968;SDS011;5025;48.890;9.278;2023-02-22T00:07:44;6.57;;;5.83;;
9968;SDS011;5025;48.890;9.278;2023-02-22T00:10:10;6.27;;;5.67;;
9968;SDS011;5025;48.890;9.278;2023-02-22T00:12:41;7.10;;;6.23;;
9968;SDS011;5025;48.890;9.278;2023-02-22T00:15:07;7.27;;;6.50;;
9968;SDS011;5025;48.890;9.278;2023-02-22T00:17:34;11.30;;;6.57;;
9968;SDS011;5025;48.890;9.278;2023-02-22T00:19:59;7.40;;;6.60;;
9968;SDS011;5025;48.890;9.278;2023-02-22T00:22:25;6.33;;;5.73;;
9968;SDS011;5025;48.890;9.278;2023-02-22T00:24:50;7.07;;;6.33;;
9968;SDS011;5025;48.890;9.278;2023-02-22T00:27:15;6.77;;;6.07;;
9968;SDS011;5025;48.890;9.278;2023-02-22T00:29:44;7.67;;;6.80;;
9968;SDS011;5025;48.890;9.278;2023-02-22T00:32:10;7.30;;;6.13;;
9968;SDS011;5025;48.890;9.278;2023-02-22T00:34:36;6.80;;;6.10;;
9968;SDS011;5025;48.890;9.278;2023-02-22T00:37:01;6.67;;;6.00;;
9968;SDS011;5025;48.890;9.278;2023-02-22T00:39:28;7.10;;;6.40;;
9968;SDS011;5025;48.890;9.278;2023-02-22T00:41:56;6.70;;;6.07;;
9968;SDS011;5025;48.890;9.278;2023-02-22T00:44:21;6.60;;;6.00;;
9968;SDS011;5025;48.890;9.278;2023-02-22T00:46:47;6.67;;;5.97;;
9968;SDS011;5025;48.890;9.278;2023-02-22T00:49:13;6.67;;;5.70;;
9968;SDS011;5025;48.890;9.278;2023-02-22T00:51:39;7.00;;;5.97;;
9968;SDS011;5025;48.890;9.278;2023-02-22T00:54:04;7.00;;;5.93;;
9968;SDS011;5025;48.890;9.278;2023-02-22T00:56:31;6.33;;;5.73;;
9968;SDS011;5025;48.890;9.278;2023-02-22T00:58:58;6.30;;;5.70;;
9968;SDS011;5025;48.890;9.278;2023-02-22T01:01:24;6.23;;;5.63;;
9968;SDS011;5025;48.890;9.278;2023-02-22T01:03:50;6.10;;;5.50;;
9968;SDS011;5025;48.890;9.278;2023-02-22T01:06:15;6.13;;;5.53;;
9968;SDS011;5025;48.890;9.278;2023-02-22T01:08:42;6.30;;;5.37;;
9968;SDS011;5025;48.890;9.278;2023-02-22T01:11:09;6.20;;;5.60;;
9968;SDS011;5025;48.890;9.278;2023-02-22T01:13:34;5.70;;;5.10;;
9968;SDS011;5025;48.890;9.278;2023-02-22T01:15:59;5.80;;;5.27;;
9968;SDS011;5025;48.890;9.278;2023-02-22T01:18:25;5.80;;;5.23;;
9968;SDS011;5025;48.890;9.278;2023-02-22T01:20:50;5.80;;;5.20;;
9968;SDS011;5025;48.890;9.278;2023-02-22T01:23:15;5.47;;;4.70;;
9968;SDS011;5025;48.890;9.278;2023-02-22T01:25:41;5.47;;;4.90;;
9968;SDS011;5025;48.890;9.278;2023-02-22T01:28:07;5.63;;;4.70;;
9968;SDS011;5025;48.890;9.278;2023-02-22T01:30:33;6.73;;;5.87;;
9968;SDS011;5025;48.890;9.278;2023-02-22T01:33:01;6.37;;;5.50;;
9968;SDS011;5025;48.890;9.278;2023-02-22T01:35:29;7.27;;;5.80;;
9968;SDS011;5025;48.890;9.278;2023-02-22T01:37:56;6.13;;;5.60;;
9968;SDS011;5025;48.890;9.278;2023-02-22T01:40:23;6.40;;;5.23;;
9968;SDS011;5025;48.890;9.278;2023-02-22T01:42:54;5.50;;;5.00;;
9968;SDS011;5025;48.890;9.278;2023-02-22T01:48:00;6.23;;;5.63;;
9968;SDS011;5025;48.890;9.278;2023-02-22T01:50:28;6.90;;;5.80;;
9968;SDS011;5025;48.890;9.278;2023-02-22T01:52:55;6.80;;;6.13;;
9968;SDS011;5025;48.890;9.278;2023-02-22T01:55:21;6.67;;;5.97;;
9968;SDS011;5025;48.890;9.278;2023-02-22T01:57:47;6.80;;;5.80;;
9968;SDS011;5025;48.890;9.278;2023-02-22T02:00:14;6.70;;;5.87;;
9968;SDS011;5025;48.890;9.278;2023-02-22T02:02:48;6.07;;;5.33;;
9968;SDS011;5025;48.890;9.278;2023-02-22T02:05:20;6.10;;;5.50;;
9968;SDS011;5025;48.890;9.278;2023-02-22T02:07:48;6.77;;;5.70;;
9968;SDS011;5025;48.890;9.278;2023-02-22T02:10:13;7.07;;;5.37;;
9968;SDS011;5025;48.890;9.278;2023-02-22T02:12:40;6.63;;;5.20;;
9968;SDS011;5025;48.890;9.278;2023-02-22T02:17:47;5.30;;;4.80;;
9968;SDS011;5025;48.890;9.278;2023-02-22T02:29:02;6.17;;;5.47;;
9968;SDS011;5025;48.890;9.278;2023-02-22T02:31:36;6.10;;;5.50;;
9968;SDS011;5025;48.890;9.278;2023-02-22T02:39:49;5.50;;;4.93;;
9968;SDS011;5025;48.890;9.278;2023-02-22T02:42:21;5.60;;;4.90;;
9968;SDS011;5025;48.890;9.278;2023-02-22T02:44:57;5.10;;;4.60;;
9968;SDS011;5025;48.890;9.278;2023-02-22T02:47:29;5.20;;;4.70;;
9968;SDS011;5025;48.890;9.278;2023-02-22T02:50:02;6.30;;;4.93;;
9968;SDS011;5025;48.890;9.278;2023-02-22T02:52:31;5.60;;;5.10;;
9968;SDS011;5025;48.890;9.278;2023-02-22T02:54:58;5.47;;;4.93;;
9968;SDS011;5025;48.890;9.278;2023-02-22T02:57:26;5.20;;;4.73;;
9968;SDS011;5025;48.890;9.278;2023-02-22T02:59:51;5.27;;;4.77;;
9968;SDS011;5025;48.890;9.278;2023-02-22T03:10:25;6.07;;;5.00;;
9968;SDS011;5025;48.890;9.278;2023-02-22T03:13:08;5.70;;;5.20;;
9968;SDS011;5025;48.890;9.278;2023-02-22T03:21:05;6.03;;;4.87;;
9968;SDS011;5025;48.890;9.278;2023-02-22T03:27:16;5.73;;;5.13;;
9968;SDS011;5025;48.890;9.278;2023-02-22T03:29:43;5.17;;;4.70;;
9968;SDS011;5025;48.890;9.278;2023-02-22T03:32:12;5.13;;;4.73;;
9968;SDS011;5025;48.890;9.278;2023-02-22T03:34:45;5.23;;;4.73;;
9968;SDS011;5025;48.890;9.278;2023-02-22T03:37:17;5.53;;;5.03;;
9968;SDS011;5025;48.890;9.278;2023-02-22T03:39:46;5.23;;;4.73;;
9968;SDS011;5025;48.890;9.278;2023-02-22T03:42:16;5.90;;;4.87;;
9968;SDS011;5025;48.890;9.278;2023-02-22T03:44:47;5.43;;;4.93;;
9968;SDS011;5025;48.890;9.278;2023-02-22T03:47:16;5.40;;;4.90;;
9968;SDS011;5025;48.890;9.278;2023-02-22T03:49:55;7.40;;;5.77;;
9968;SDS011;5025;48.890;9.278;2023-02-22T03:52:30;5.23;;;4.70;;
9968;SDS011;5025;48.890;9.278;2023-02-22T03:54:58;5.73;;;4.90;;
9968;SDS011;5025;48.890;9.278;2023-02-22T03:57:26;5.57;;;5.07;;
9968;SDS011;5025;48.890;9.278;2023-02-22T03:59:53;5.63;;;5.07;;
9968;SDS011;5025;48.890;9.278;2023-02-22T04:02:19;5.20;;;4.67;;
9968;SDS011;5025;48.890;9.278;2023-02-22T04:04:47;6.17;;;5.57;;
9968;SDS011;5025;48.890;9.278;2023-02-22T04:07:13;5.50;;;5.00;;
9968;SDS011;5025;48.890;9.278;2023-02-22T04:09:39;5.37;;;4.87;;
9968;SDS011;5025;48.890;9.278;2023-02-22T04:12:04;6.43;;;5.70;;
9968;SDS011;5025;48.890;9.278;2023-02-22T04:14:29;6.00;;;5.40;;
9968;SDS011;5025;48.890;9.278;2023-02-22T04:16:55;5.67;;;5.17;;
9968;SDS011;5025;48.890;9.278;2023-02-22T04:19:20;7.50;;;5.30;;
9968;SDS011;5025;48.890;9.278;2023-02-22T04:21:46;7.70;;;5.70;;
9968;SDS011;5025;48.890;9.278;2023-02-22T04:24:12;7.50;;;5.90;;
9968;SDS011;5025;48.890;9.278;2023-02-22T04:26:37;6.60;;;5.57;;
9968;SDS011;5025;48.890;9.278;2023-02-22T04:29:03;6.80;;;5.70;;
9968;SDS011;5025;48.890;9.278;2023-02-22T04:31:28;6.50;;;5.80;;
9968;SDS011;5025;48.890;9.278;2023-02-22T04:33:54;6.13;;;5.33;;
9968;SDS011;5025;48.890;9.278;2023-02-22T04:36:20;6.00;;;5.40;;
9968;SDS011;5025;48.890;9.278;2023-02-22T04:38:45;7.27;;;5.30;;
9968;SDS011;5025;48.890;9.278;2023-02-22T04:41:11;6.03;;;5.37;;
9968;SDS011;5025;48.890;9.278;2023-02-22T04:43:36;6.07;;;5.20;;
9968;SDS011;5025;48.890;9.278;2023-02-22T04:46:02;5.40;;;4.90;;
9968;SDS011;5025;48.890;9.278;2023-02-22T04:48:28;5.53;;;5.03;;
9968;SDS011;5025;48.890;9.278;2023-02-22T04:50:54;6.00;;;5.40;;
9968;SDS011;5025;48.890;9.278;2023-02-22T04:53:19;5.70;;;5.20;;
9968;SDS011;5025;48.890;9.278;2023-02-22T04:55:44;5.47;;;4.97;;
9968;SDS011;5025;48.890;9.278;2023-02-22T04:58:10;5.77;;;5.03;;
9968;SDS011;5025;48.890;9.278;2023-02-22T05:00:35;5.27;;;4.77;;
9968;SDS011;5025;48.890;9.278;2023-02-22T05:03:00;5.97;;;5.13;;
9968;SDS011;5025;48.890;9.278;2023-02-22T05:05:26;5.80;;;5.10;;
9968;SDS011;5025;48.890;9.278;2023-02-22T05:07:51;5.43;;;4.97;;
9968;SDS011;5025;48.890;9.278;2023-02-22T05:10:17;5.80;;;5.10;;
9968;SDS011;5025;48.890;9.278;2023-02-22T05:12:43;6.20;;;5.57;;
9968;SDS011;5025;48.890;9.278;2023-02-22T05:15:08;5.40;;;4.90;;
9968;SDS011;5025;48.890;9.278;2023-02-22T05:17:35;5.63;;;5.13;;
9968;SDS011;5025;48.890;9.278;2023-02-22T05:20:00;6.30;;;5.70;;
9968;SDS011;5025;48.890;9.278;2023-02-22T05:22:27;5.73;;;5.23;;
9968;SDS011;5025;48.890;9.278;2023-02-22T05:24:52;5.47;;;4.97;;
9968;SDS011;5025;48.890;9.278;2023-02-22T05:27:17;5.97;;;5.47;;
9968;SDS011;5025;48.890;9.278;2023-02-22T05:29:43;6.47;;;5.17;;
9968;SDS011;5025;48.890;9.278;2023-02-22T05:32:09;5.40;;;4.90;;
9968;SDS011;5025;48.890;9.278;2023-02-22T05:34:36;5.57;;;5.03;;
9968;SDS011;5025;48.890;9.278;2023-02-22T05:37:01;6.23;;;5.63;;
9968;SDS011;5025;48.890;9.278;2023-02-22T05:39:27;5.97;;;5.37;;
9968;SDS011;5025;48.890;9.278;2023-02-22T05:41:54;5.70;;;5.20;;
9968;SDS011;5025;48.890;9.278;2023-02-22T05:44:19;6.17;;;5.07;;
9968;SDS011;5025;48.890;9.278;2023-02-22T05:46:45;5.57;;;5.00;;
9968;SDS011;5025;48.890;9.278;2023-02-22T05:49:10;6.23;;;5.10;;
9968;SDS011;5025;48.890;9.278;2023-02-22T05:51:35;6.20;;;5.40;;
9968;SDS011;5025;48.890;9.278;2023-02-22T05:54:00;5.37;;;4.87;;
9968;SDS011;5025;48.890;9.278;2023-02-22T05:56:26;5.97;;;5.47;;
9968;SDS011;5025;48.890;9.278;2023-02-22T05:58:54;6.07;;;5.13;;
9968;SDS011;5025;48.890;9.278;2023-02-22T06:01:19;6.40;;;5.30;;
9968;SDS011;5025;48.890;9.278;2023-02-22T06:03:49;6.77;;;5.70;;
9968;SDS011;5025;48.890;9.278;2023-02-22T06:06:15;6.87;;;6.17;;
9968;SDS011;5025;48.890;9.278;2023-02-22T06:08:41;6.73;;;5.67;;
9968;SDS011;5025;48.890;9.278;2023-02-22T06:11:07;6.40;;;5.53;;
9968;SDS011;5025;48.890;9.278;2023-02-22T06:13:33;6.77;;;5.73;;
9968;SDS011;5025;48.890;9.278;2023-02-22T06:15:59;5.60;;;5.10;;
9968;SDS011;5025;48.890;9.278;2023-02-22T06:18:24;6.10;;;5.30;;
9968;SDS011;5025;48.890;9.278;2023-02-22T06:20:50;7.20;;;6.37;;
9968;SDS011;5025;48.890;9.278;2023-02-22T06:23:16;15.67;;;10.97;;
9968;SDS011;5025;48.890;9.278;2023-02-22T06:25:41;15.27;;;11.17;;
9968;SDS011;5025;48.890;9.278;2023-02-22T06:28:06;14.73;;;11.50;;
9968;SDS011;5025;48.890;9.278;2023-02-22T06:30:32;14.90;;;11.23;;
9968;SDS011;5025;48.890;9.278;2023-02-22T06:32:57;15.00;;;12.20;;
9968;SDS011;5025;48.890;9.278;2023-02-22T06:35:22;12.70;;;11.13;;
9968;SDS011;5025;48.890;9.278;2023-02-22T06:37:47;11.67;;;10.07;;
9968;SDS011;5025;48.890;9.278;2023-02-22T06:40:13;12.60;;;10.20;;
9968;SDS011;5025;48.890;9.278;2023-02-22T06:42:39;18.70;;;11.73;;
9968;SDS011;5025;48.890;9.278;2023-02-22T06:45:04;13.60;;;10.90;;
9968;SDS011;5025;48.890;9.278;2023-02-22T06:47:31;13.33;;;9.60;;
9968;SDS011;5025;48.890;9.278;2023-02-22T06:49:57;11.83;;;9.73;;
9968;SDS011;5025;48.890;9.278;2023-02-22T06:52:23;11.40;;;8.77;;
9968;SDS011;5025;48.890;9.278;2023-02-22T06:54:49;12.20;;;9.00;;
9968;SDS011;5025;48.890;9.278;2023-02-22T06:57:15;16.67;;;8.90;;
9968;SDS011;5025;48.890;9.278;2023-02-22T06:59:40;14.80;;;8.93;;
9968;SDS011;5025;48.890;9.278;2023-02-22T07:02:05;12.53;;;8.13;;
9968;SDS011;5025;48.890;9.278;2023-02-22T07:04:31;11.57;;;7.20;;
9968;SDS011;5025;48.890;9.278;2023-02-22T07:06:56;9.30;;;6.80;;
9968;SDS011;5025;48.890;9.278;2023-02-22T07:09:21;8.87;;;6.67;;
9968;SDS011;5025;48.890;9.278;2023-02-22T07:11:47;7.37;;;6.43;;
9968;SDS011;5025;48.890;9.278;2023-02-22T07:14:12;6.90;;;6.20;;
9968;SDS011;5025;48.890;9.278;2023-02-22T07:16:40;9.77;;;6.20;;
9968;SDS011;5025;48.890;9.278;2023-02-22T07:19:05;7.20;;;5.70;;
9968;SDS011;5025;48.890;9.278;2023-02-22T07:21:30;6.97;;;6.27;;
9968;SDS011;5025;48.890;9.278;2023-02-22T07:23:56;6.60;;;5.50;;
9968;SDS011;5025;48.890;9.278;2023-02-22T07:26:22;6.40;;;5.77;;
9968;SDS011;5025;48.890;9.278;2023-02-22T07:28:49;6.23;;;5.63;;
9968;SDS011;5025;48.890;9.278;2023-02-22T07:31:14;5.30;;;4.90;;
9968;SDS011;5025;48.890;9.278;2023-02-22T07:33:40;7.57;;;5.77;;
9968;SDS011;5025;48.890;9.278;2023-02-22T07:36:05;6.57;;;5.87;;
9968;SDS011;5025;48.890;9.278;2023-02-22T07:38:31;6.93;;;6.20;;
9968;SDS011;5025;48.890;9.278;2023-02-22T07:40:56;7.00;;;6.30;;
9968;SDS011;5025;48.890;9.278;2023-02-22T07:43:23;5.87;;;5.33;;
9968;SDS011;5025;48.890;9.278;2023-02-22T07:45:50;6.73;;;6.00;;
9968;SDS011;5025;48.890;9.278;2023-02-22T07:48:17;7.00;;;5.80;;
9968;SDS011;5025;48.890;9.278;2023-02-22T07:50:44;5.93;;;5.30;;
9968;SDS011;5025;48.890;9.278;2023-02-22T07:53:11;5.90;;;5.27;;
9968;SDS011;5025;48.890;9.278;2023-02-22T07:55:39;8.57;;;6.60;;
9968;SDS011;5025;48.890;9.278;2023-02-22T07:58:05;7.00;;;6.30;;
9968;SDS011;5025;48.890;9.278;2023-02-22T08:00:33;7.97;;;6.70;;
9968;SDS011;5025;48.890;9.278;2023-02-22T08:03:04;6.67;;;5.80;;
9968;SDS011;5025;48.890;9.278;2023-02-22T08:05:31;6.47;;;5.87;;
9968;SDS011;5025;48.890;9.278;2023-02-22T08:07:57;6.27;;;5.67;;
9968;SDS011;5025;48.890;9.278;2023-02-22T08:10:23;6.80;;;5.83;;
9968;SDS011;5025;48.890;9.278;2023-02-22T08:12:50;6.40;;;5.80;;
9968;SDS011;5025;48.890;9.278;2023-02-22T08:15:20;6.93;;;6.30;;
9968;SDS011;5025;48.890;9.278;2023-02-22T08:17:48;7.47;;;6.77;;
9968;SDS011;5025;48.890;9.278;2023-02-22T08:20:14;8.00;;;7.30;;
9968;SDS011;5025;48.890;9.278;2023-02-22T08:22:41;6.60;;;6.00;;
9968;SDS011;5025;48.890;9.278;2023-02-22T08:25:08;6.20;;;5.60;;
9968;SDS011;5025;48.890;9.278;2023-02-22T08:27:33;6.83;;;6.13;;
9968;SDS011;5025;48.890;9.278;2023-02-22T08:29:58;6.80;;;6.10;;
9968;SDS011;5025;48.890;9.278;2023-02-22T08:32:24;9.07;;;7.37;;
9968;SDS011;5025;48.890;9.278;2023-02-22T08:34:49;7.50;;;6.73;;
9968;SDS011;5025;48.890;9.278;2023-02-22T08:37:15;8.90;;;7.03;;
9968;SDS011;5025;48.890;9.278;2023-02-22T08:39:42;7.80;;;7.07;;
9968;SDS011;5025;48.890;9.278;2023-02-22T08:42:07;7.30;;;6.60;;
9968;SDS011;5025;48.890;9.278;2023-02-22T08:44:33;7.47;;;6.63;;
9968;SDS011;5025;48.890;9.278;2023-02-22T08:46:59;11.13;;;8.00;;
9968;SDS011;5025;48.890;9.278;2023-02-22T08:49:24;10.37;;;8.33;;
9968;SDS011;5025;48.890;9.278;2023-02-22T08:51:49;12.40;;;8.97;;
9968;SDS011;5025;48.890;9.278;2023-02-22T08:54:15;15.03;;;9.53;;
9968;SDS011;5025;48.890;9.278;2023-02-22T08:56:41;9.93;;;8.87;;
9968;SDS011;5025;48.890;9.278;2023-02-22T08:59:07;10.33;;;8.20;;
9968;SDS011;5025;48.890;9.278;2023-02-22T09:01:32;15.27;;;8.60;;
9968;SDS011;5025;48.890;9.278;2023-02-22T09:03:58;11.37;;;7.70;;
9968;SDS011;5025;48.890;9.278;2023-02-22T09:06:24;8.00;;;7.20;;
9968;SDS011;5025;48.890;9.278;2023-02-22T09:08:49;8.43;;;6.63;;
9968;SDS011;5025;48.890;9.278;2023-02-22T09:11:14;8.47;;;6.77;;
9968;SDS011;5025;48.890;9.278;2023-02-22T09:13:40;7.20;;;6.27;;
9968;SDS011;5025;48.890;9.278;2023-02-22T09:16:05;9.50;;;6.63;;
9968;SDS011;5025;48.890;9.278;2023-02-22T09:18:30;8.83;;;6.47;;
9968;SDS011;5025;48.890;9.278;2023-02-22T09:20:56;7.30;;;6.40;;
9968;SDS011;5025;48.890;9.278;2023-02-22T09:23:22;7.37;;;6.50;;
9968;SDS011;5025;48.890;9.278;2023-02-22T09:25:47;7.80;;;7.00;;
9968;SDS011;5025;48.890;9.278;2023-02-22T09:28:13;10.93;;;7.03;;
9968;SDS011;5025;48.890;9.278;2023-02-22T09:30:39;7.67;;;6.57;;
9968;SDS011;5025;48.890;9.278;2023-02-22T09:33:09;7.07;;;6.20;;
9968;SDS011;5025;48.890;9.278;2023-02-22T09:35:43;12.17;;;7.83;;
9968;SDS011;5025;48.890;9.278;2023-02-22T09:38:14;9.80;;;8.80;;
9968;SDS011;5025;48.890;9.278;2023-02-22T09:40:42;9.33;;;7.60;;
9968;SDS011;5025;48.890;9.278;2023-02-22T09:51:28;6.97;;;6.27;;
9968;SDS011;5025;48.890;9.278;2023-02-22T09:53:59;7.57;;;6.10;;
9968;SDS011;5025;48.890;9.278;2023-02-22T09:56:28;8.40;;;6.40;;
9968;SDS011;5025;48.890;9.278;2023-02-22T09:58:55;7.33;;;6.40;;
9968;SDS011;5025;48.890;9.278;2023-02-22T10:01:29;9.87;;;7.00;;
9968;SDS011;5025;48.890;9.278;2023-02-22T10:06:42;8.30;;;6.73;;
9968;SDS011;5025;48.890;9.278;2023-02-22T10:09:20;7.90;;;6.97;;
9968;SDS011;5025;48.890;9.278;2023-02-22T10:11:51;10.57;;;8.03;;
9968;SDS011;5025;48.890;9.278;2023-02-22T10:14:34;10.07;;;8.23;;
9968;SDS011;5025;48.890;9.278;2023-02-22T10:19:56;8.87;;;7.73;;
9968;SDS011;5025;48.890;9.278;2023-02-22T10:25:27;6.93;;;6.23;;
9968;SDS011;5025;48.890;9.278;2023-02-22T10:30:34;7.63;;;5.77;;
9968;SDS011;5025;48.890;9.278;2023-02-22T10:33:16;6.00;;;5.40;;
9968;SDS011;5025;48.890;9.278;2023-02-22T10:35:45;5.17;;;4.77;;
9968;SDS011;5025;48.890;9.278;2023-02-22T10:38:18;5.93;;;5.43;;
9968;SDS011;5025;48.890;9.278;2023-02-22T10:41:07;6.20;;;5.60;;
9968;SDS011;5025;48.890;9.278;2023-02-22T10:43:44;5.70;;;5.20;;
9968;SDS011;5025;48.890;9.278;2023-02-22T10:46:11;5.37;;;4.87;;
9968;SDS011;5025;48.890;9.278;2023-02-22T10:48:40;5.20;;;4.80;;
9968;SDS011;5025;48.890;9.278;2023-02-22T10:51:08;5.17;;;4.77;;
9968;SDS011;5025;48.890;9.278;2023-02-22T10:53:35;5.37;;;4.87;;
9968;SDS011;5025;48.890;9.278;2023-02-22T10:56:06;5.40;;;4.90;;
9968;SDS011;5025;48.890;9.278;2023-02-22T10:58:40;5.50;;;5.00;;
9968;SDS011;5025;48.890;9.278;2023-02-22T11:06:22;6.50;;;5.90;;
9968;SDS011;5025;48.890;9.278;2023-02-22T11:08:48;5.90;;;5.40;;
9968;SDS011;5025;48.890;9.278;2023-02-22T11:11:33;5.60;;;5.10;;
9968;SDS011;5025;48.890;9.278;2023-02-22T11:13:59;5.37;;;4.90;;
9968;SDS011;5025;48.890;9.278;2023-02-22T11:16:26;5.00;;;4.60;;
9968;SDS011;5025;48.890;9.278;2023-02-22T11:19:19;5.50;;;5.00;;
9968;SDS011;5025;48.890;9.278;2023-02-22T11:21:50;5.17;;;4.67;;
9968;SDS011;5025;48.890;9.278;2023-02-22T11:24:19;5.23;;;4.80;;
9968;SDS011;5025;48.890;9.278;2023-02-22T11:26:57;9.03;;;7.40;;
9968;SDS011;5025;48.890;9.278;2023-02-22T11:32:02;6.47;;;5.90;;
9968;SDS011;5025;48.890;9.278;2023-02-22T11:34:37;9.50;;;7.33;;
9968;SDS011;5025;48.890;9.278;2023-02-22T11:40:16;10.00;;;8.20;;
9968;SDS011;5025;48.890;9.278;2023-02-22T11:43:03;9.97;;;8.50;;
9968;SDS011;5025;48.890;9.278;2023-02-22T11:45:33;9.83;;;8.40;;
9968;SDS011;5025;48.890;9.278;2023-02-22T11:47:59;11.23;;;8.40;;
9968;SDS011;5025;48.890;9.278;2023-02-22T11:50:27;8.97;;;7.70;;
9968;SDS011;5025;48.890;9.278;2023-02-22T11:53:12;8.83;;;7.93;;
9968;SDS011;5025;48.890;9.278;2023-02-22T11:55:50;9.70;;;7.90;;
9968;SDS011;5025;48.890;9.278;2023-02-22T12:06:45;7.17;;;6.10;;
9968;SDS011;5025;48.890;9.278;2023-02-22T12:09:15;7.13;;;6.47;;
9968;SDS011;5025;48.890;9.278;2023-02-22T12:17:25;7.17;;;6.47;;
9968;SDS011;5025;48.890;9.278;2023-02-22T12:20:08;6.77;;;6.17;;
9968;SDS011;5025;48.890;9.278;2023-02-22T12:23:19;6.57;;;5.97;;
9968;SDS011;5025;48.890;9.278;2023-02-22T12:26:06;6.37;;;5.83;;
9968;SDS011;5025;48.890;9.278;2023-02-22T12:28:38;7.53;;;6.83;;
9968;SDS011;5025;48.890;9.278;2023-02-22T12:31:19;7.30;;;6.70;;
9968;SDS011;5025;48.890;9.278;2023-02-22T12:33:49;6.13;;;5.60;;
9968;SDS011;5025;48.890;9.278;2023-02-22T12:36:24;5.67;;;5.17;;
9968;SDS011;5025;48.890;9.278;2023-02-22T12:38:58;6.63;;;6.03;;
9968;SDS011;5025;48.890;9.278;2023-02-22T12:41:34;6.70;;;6.10;;
9968;SDS011;5025;48.890;9.278;2023-02-22T12:44:08;6.03;;;5.53;;
9968;SDS011;5025;48.890;9.278;2023-02-22T12:46:42;9.17;;;7.43;;
9968;SDS011;5025;48.890;9.278;2023-02-22T12:49:39;6.43;;;5.83;;
9968;SDS011;5025;48.890;9.278;2023-02-22T12:52:11;7.67;;;6.83;;
9968;SDS011;5025;48.890;9.278;2023-02-22T13:03:00;9.93;;;8.77;;
9968;SDS011;5025;48.890;9.278;2023-02-22T13:05:48;10.03;;;8.70;;
9968;SDS011;5025;48.890;9.278;2023-02-22T13:22:06;6.80;;;6.20;;
9968;SDS011;5025;48.890;9.278;2023-02-22T13:27:15;7.90;;;7.10;;
9968;SDS011;5025;48.890;9.278;2023-02-22T13:29:46;6.70;;;6.03;;
9968;SDS011;5025;48.890;9.278;2023-02-22T13:35:01;6.30;;;5.80;;
9968;SDS011;5025;48.890;9.278;2023-02-22T13:38:13;7.13;;;6.40;;
9968;SDS011;5025;48.890;9.278;2023-02-22T13:51:50;9.80;;;8.80;;
9968;SDS011;5025;48.890;9.278;2023-02-22T13:54:27;8.40;;;7.60;;
9968;SDS011;5025;48.890;9.278;2023-02-22T14:02:58;35.80;;;24.40;;
9968;SDS011;5025;48.890;9.278;2023-02-22T14:05:50;22.57;;;17.00;;
9968;SDS011;5025;48.890;9.278;2023-02-22T14:10:44;40.93;;;26.20;;
9968;SDS011;5025;48.890;9.278;2023-02-22T14:13:12;35.03;;;23.03;;
9968;SDS011;5025;48.890;9.278;2023-02-22T14:18:24;66.57;;;28.03;;
9968;SDS011;5025;48.890;9.278;2023-02-22T14:26:15;18.73;;;10.57;;
9968;SDS011;5025;48.890;9.278;2023-02-22T14:28:44;18.00;;;10.13;;
9968;SDS011;5025;48.890;9.278;2023-02-22T14:31:16;18.97;;;10.40;;
9968;SDS011;5025;48.890;9.278;2023-02-22T14:41:39;73.93;;;18.20;;
9968;SDS011;5025;48.890;9.278;2023-02-22T14:44:09;46.37;;;13.80;;
9968;SDS011;5025;48.890;9.278;2023-02-22T14:46:37;28.03;;;11.80;;
9968;SDS011;5025;48.890;9.278;2023-02-22T14:49:06;25.00;;;10.27;;
9968;SDS011;5025;48.890;9.278;2023-02-22T14:51:43;40.97;;;13.80;;
9968;SDS011;5025;48.890;9.278;2023-02-22T14:56:57;23.10;;;10.00;;
9968;SDS011;5025;48.890;9.278;2023-02-22T14:59:36;18.23;;;8.43;;
9968;SDS011;5025;48.890;9.278;2023-02-22T15:02:12;15.10;;;8.50;;
9968;SDS011;5025;48.890;9.278;2023-02-22T15:04:38;13.03;;;7.90;;
9968;SDS011;5025;48.890;9.278;2023-02-22T15:07:19;14.70;;;7.80;;
9968;SDS011;5025;48.890;9.278;2023-02-22T15:09:51;13.93;;;8.40;;
9968;SDS011;5025;48.890;9.278;2023-02-22T15:12:28;13.33;;;7.03;;
9968;SDS011;5025;48.890;9.278;2023-02-22T15:15:39;10.10;;;6.70;;
9968;SDS011;5025;48.890;9.278;2023-02-22T15:17:46;7.47;;;6.03;;
9968;SDS011;5025;48.890;9.278;2023-02-22T15:20:14;6.47;;;5.77;;
9968;SDS011;5025;48.890;9.278;2023-02-22T15:22:41;6.53;;;5.57;;
9968;SDS011;5025;48.890;9.278;2023-02-22T15:25:07;7.57;;;5.77;;
9968;SDS011;5025;48.890;9.278;2023-02-22T15:27:33;8.43;;;5.80;;
9968;SDS011;5025;48.890;9.278;2023-02-22T15:30:03;6.60;;;6.00;;
9968;SDS011;5025;48.890;9.278;2023-02-22T15:32:32;6.07;;;5.20;;
9968;SDS011;5025;48.890;9.278;2023-02-22T15:40:30;5.40;;;4.90;;
9968;SDS011;5025;48.890;9.278;2023-02-22T15:42:58;5.07;;;4.70;;
9968;SDS011;5025;48.890;9.278;2023-02-22T15:45:26;5.50;;;5.00;;
9968;SDS011;5025;48.890;9.278;2023-02-22T15:47:52;5.73;;;5.23;;
9968;SDS011;5025;48.890;9.278;2023-02-22T15:55:35;5.13;;;4.73;;
9968;SDS011;5025;48.890;9.278;2023-02-22T15:58:06;6.50;;;5.90;;
9968;SDS011;5025;48.890;9.278;2023-02-22T16:00:35;6.90;;;6.30;;
9968;SDS011;5025;48.890;9.278;2023-02-22T16:03:10;6.60;;;6.00;;
9968;SDS011;5025;48.890;9.278;2023-02-22T16:05:39;6.50;;;6.00;;
9968;SDS011;5025;48.890;9.278;2023-02-22T16:08:13;6.07;;;5.57;;
9968;SDS011;5025;48.890;9.278;2023-02-22T16:10:45;5.90;;;5.40;;
9968;SDS011;5025;48.890;9.278;2023-02-22T16:13:37;5.77;;;5.27;;
9968;SDS011;5025;48.890;9.278;2023-02-22T16:18:40;5.60;;;5.10;;
9968;SDS011;5025;48.890;9.278;2023-02-22T16:21:09;5.17;;;4.77;;
9968;SDS011;5025;48.890;9.278;2023-02-22T16:28:53;6.07;;;5.57;;
9968;SDS011;5025;48.890;9.278;2023-02-22T16:31:20;5.90;;;5.30;;
9968;SDS011;5025;48.890;9.278;2023-02-22T16:33:49;5.30;;;4.90;;
9968;SDS011;5025;48.890;9.278;2023-02-22T16:36:15;5.57;;;5.07;;
9968;SDS011;5025;48.890;9.278;2023-02-22T16:38:42;5.50;;;5.00;;
9968;SDS011;5025;48.890;9.278;2023-02-22T16:41:11;5.00;;;4.60;;
9968;SDS011;5025;48.890;9.278;2023-02-22T16:43:37;4.87;;;4.50;;
9968;SDS011;5025;48.890;9.278;2023-02-22T16:46:02;7.90;;;7.10;;
9968;SDS011;5025;48.890;9.278;2023-02-22T16:48:31;8.73;;;7.70;;
9968;SDS011;5025;48.890;9.278;2023-02-22T16:51:07;6.60;;;6.10;;
9968;SDS011;5025;48.890;9.278;2023-02-22T16:53:40;6.50;;;6.00;;
9968;SDS011;5025;48.890;9.278;2023-02-22T16:56:07;7.57;;;6.77;;
9968;SDS011;5025;48.890;9.278;2023-02-22T16:58:36;6.97;;;6.27;;
9968;SDS011;5025;48.890;9.278;2023-02-22T17:01:04;6.40;;;5.80;;
9968;SDS011;5025;48.890;9.278;2023-02-22T17:03:30;7.13;;;6.43;;
9968;SDS011;5025;48.890;9.278;2023-02-22T17:05:55;7.67;;;6.87;;
9968;SDS011;5025;48.890;9.278;2023-02-22T17:08:21;8.77;;;7.97;;
9968;SDS011;5025;48.890;9.278;2023-02-22T17:10:46;8.87;;;7.97;;
9968;SDS011;5025;48.890;9.278;2023-02-22T17:13:15;9.17;;;8.10;;
9968;SDS011;5025;48.890;9.278;2023-02-22T17:15:47;7.10;;;6.40;;
9968;SDS011;5025;48.890;9.278;2023-02-22T17:18:13;8.63;;;7.70;;
9968;SDS011;5025;48.890;9.278;2023-02-22T17:20:40;10.07;;;8.77;;
9968;SDS011;5025;48.890;9.278;2023-02-22T17:23:07;7.27;;;6.67;;
9968;SDS011;5025;48.890;9.278;2023-02-22T17:28:09;6.53;;;5.93;;
9968;SDS011;5025;48.890;9.278;2023-02-22T17:30:35;6.90;;;6.30;;
9968;SDS011;5025;48.890;9.278;2023-02-22T17:33:02;7.90;;;7.20;;
9968;SDS011;5025;48.890;9.278;2023-02-22T17:35:31;7.20;;;6.50;;
9968;SDS011;5025;48.890;9.278;2023-02-22T17:37:58;7.60;;;6.90;;
9968;SDS011;5025;48.890;9.278;2023-02-22T17:40:25;8.50;;;7.57;;
9968;SDS011;5025;48.890;9.278;2023-02-22T17:42:53;6.97;;;6.27;;
9968;SDS011;5025;48.890;9.278;2023-02-22T17:45:22;7.97;;;7.30;;
9968;SDS011;5025;48.890;9.278;2023-02-22T17:47:49;7.30;;;6.37;;
9968;SDS011;5025;48.890;9.278;2023-02-22T17:50:17;8.57;;;7.67;;
9968;SDS011;5025;48.890;9.278;2023-02-22T17:52:43;8.23;;;7.43;;
9968;SDS011;5025;48.890;9.278;2023-02-22T17:55:09;8.43;;;7.63;;
9968;SDS011;5025;48.890;9.278;2023-02-22T17:57:34;9.20;;;8.17;;
9968;SDS011;5025;48.890;9.278;2023-02-22T18:00:00;8.43;;;7.63;;
9968;SDS011;5025;48.890;9.278;2023-02-22T18:02:36;11.70;;;7.73;;
9968;SDS011;5025;48.890;9.278;2023-02-22T18:05:06;9.50;;;8.53;;
9968;SDS011;5025;48.890;9.278;2023-02-22T18:07:32;8.80;;;7.90;;
9968;SDS011;5025;48.890;9.278;2023-02-22T18:09:57;8.13;;;7.33;;